Time;durP1;ratioP1;P1;durP2;ratioP2;P2;SDS_P1;SDS_P2;PMS_P1;PMS_P2;Temp;Humidity;BMP_temperature;BMP_pressure;BME280_temperature;BME280_humidity;BME280_pressure;Samples;Min_cycle;Max_cycle;Signal;HPM_P1;HPM_P2
2021/01/11 00:03:59;;;;;;;;;;;;;;;;;;5032458;28;20080;-66
2021/01/11 00:06:26;;;;;;;;;;;;;;;;;;5032744;28;19925;-66
2021/01/11 00:08:53;;;;;;;;;;;;;;;;;;5031776;28;20028;-66
2021/01/11 00:11:20;;;;;;;;;;;;;;;;;;5032331;28;19932;-66
2021/01/11 00:13:49;;;;;;;;;;;;;;;;;;5032417;28;19979;-66
2021/01/11 00:16:16;;;;;;;;;;;;;;;;;;5032267;28;20303;-66
2021/01/11 00:18:43;;;;;;;;;;;;;;;;;;5032825;28;20007;-66
2021/01/11 00:21:10;;;;;;;;;;;;;;;;;;5032029;28;20043;-66
2021/01/11 00:23:37;;;;;;;;;;;;;;;;;;5032202;28;20420;-66
2021/01/11 00:26:04;;;;;;;;;;;;;;;;;;5032207;28;19940;-66
2021/01/11 00:28:32;;;;;;;;;;;;;;;;;;5031689;28;20368;-66
2021/01/11 00:30:59;;;;;;;;;;;;;;;;;;5032184;28;19925;-66
2021/01/11 00:33:26;;;;;;;;;;;;;;;;;;5032307;28;19936;-66
2021/01/11 00:35:57;;;;;;;;;;;;;;;;;;5026121;28;19932;-66
2021/01/11 00:38:24;;;;;;;;;;;;;;;;;;5031914;28;19935;-66
2021/01/11 00:40:51;;;;;;;;;;;;;;;;;;5020337;28;19925;-66
2021/01/11 00:43:18;;;;;;;;;;;;;;;;;;5031865;28;19979;-66
2021/01/11 00:45:45;;;;;;;;;;;;;;;;;;5032727;28;19991;-66
2021/01/11 00:48:12;;;;;;;;;;;;;;;;;;5031939;28;19936;-66
2021/01/11 00:50:40;;;;;;;;;;;;;;;;;;5026124;28;20447;-66
2021/01/11 00:53:07;;;;;;;;;;;;;;;;;;5032027;28;19929;-66
2021/01/11 00:55:34;;;;;;;;;;;;;;;;;;5031849;28;19947;-66
2021/01/11 00:58:01;;;;;;;;;;;;;;;;;;5030840;28;19925;-66
2021/01/11 01:00:28;;;;;;;;;;;;;;;;;;5031684;28;20460;-66
2021/01/11 01:02:55;;;;;;;;;;;;;;;;;;5031869;28;19929;-66
2021/01/11 01:05:22;;;;;;;;;;;;;;;;;;5031808;28;20028;-66
2021/01/11 01:07:49;;;;;;;;;;;;;;;;;;5031424;28;20373;-66
2021/01/11 01:10:17;;;;;;;;;;;;;;;;;;5031246;28;20734;-66
2021/01/11 01:12:44;;;;;;;;;;;;;;;;;;5031503;28;19929;-66
2021/01/11 01:15:11;;;;;;;;;;;;;;;;;;5031073;28;19933;-66
2021/01/11 01:17:40;;;;;;;;;;;;;;;;;;5031373;28;19983;-66
2021/01/11 01:20:10;;;;;;;;;;;;;;;;;;5030732;28;19983;-66
2021/01/11 01:22:37;;;;;;;;;;;;;;;;;;5032104;28;20589;-66
2021/01/11 01:25:04;;;;;;;;;;;;;;;;;;5031223;28;20011;-66
2021/01/11 01:27:31;;;;;;;;;;;;;;;;;;5031346;28;19952;-66
2021/01/11 01:29:58;;;;;;;;;;;;;;;;;;5030683;28;20035;-66
2021/01/11 01:32:25;;;;;;;;;;;;;;;;;;5031514;28;19931;-66
2021/01/11 01:34:53;;;;;;;;;;;;;;;;;;5030824;28;19987;-66
2021/01/11 01:37:20;;;;;;;;;;;;;;;;;;5030907;28;19941;-66
2021/01/11 01:39:47;;;;;;;;;;;;;;;;;;5030391;28;19929;-66
2021/01/11 01:42:14;;;;;;;;;;;;;;;;;;5031391;28;20292;-66
2021/01/11 01:44:41;;;;;;;;;;;;;;;;;;5029857;28;20394;-66
2021/01/11 01:47:08;;;;;;;;;;;;;;;;;;5029001;28;20484;-66
2021/01/11 01:49:35;;;;;;;;;;;;;;;;;;5029693;28;19925;-66
2021/01/11 01:52:02;;;;;;;;;;;;;;;;;;5030976;28;19925;-66
2021/01/11 01:54:30;;;;;;;;;;;;;;;;;;5030876;28;19931;-66
2021/01/11 01:56:57;;;;;;;;;;;;;;;;;;5023630;28;20008;-66
2021/01/11 01:59:24;;;;;;;;;;;;;;;;;;5029445;28;20401;-66
2021/01/11 02:01:51;;;;;;;;;;;;;;;;;;5029278;28;19929;-66
2021/01/11 02:04:18;;;;;;;;;;;;;;;;;;5036019;22;20053;-61
2021/01/11 02:06:46;;;;;;;;;;;;;;;;;;5013672;28;19932;-61
2021/01/11 02:09:14;;;;;;;;;;;;;;;;;;5013870;28;19935;-61
2021/01/11 02:11:41;;;;;;;;;;;;;;;;;;5014146;28;20265;-62
2021/01/11 02:14:08;;;;;;;;;;;;;;;;;;5014397;28;20350;-62
2021/01/11 02:16:35;;;;;;;;;;;;;;;;;;5013553;28;20013;-62
2021/01/11 02:19:16;;;;;;;;;;;;;;;;;;5013405;28;20300;-62
2021/01/11 02:21:43;;;;;;;;;;;;;;;;;;5013145;28;20349;-62
2021/01/11 02:24:10;;;;;;;;;;;;;;;;;;5013256;28;20223;-62
2021/01/11 02:26:37;;;;;;;;;;;;;;;;;;5013536;28;19932;-62
2021/01/11 02:29:04;;;;;;;;;;;;;;;;;;5013159;28;19929;-62
2021/01/11 02:31:31;;;;;;;;;;;;;;;;;;5013852;28;19929;-62
2021/01/11 02:33:59;;;;;;;;;;;;;;;;;;5013237;28;20397;-62
2021/01/11 02:36:26;;;;;;;;;;;;;;;;;;5013432;28;19925;-61
2021/01/11 02:38:53;;;;;;;;;;;;;;;;;;5013031;28;19925;-62
2021/01/11 02:41:20;;;;;;;;;;;;;;;;;;5013468;28;19925;-62
2021/01/11 02:43:47;;;;;;;;;;;;;;;;;;5013688;28;19926;-61
2021/01/11 02:46:14;;;;;;;;;;;;;;;;;;5012963;28;19929;-61
2021/01/11 02:48:41;;;;;;;;;;;;;;;;;;5013402;28;20016;-61
2021/01/11 02:51:09;;;;;;;;;;;;;;;;;;5013045;28;20247;-61
2021/01/11 02:53:36;;;;;;;;;;;;;;;;;;5013342;28;19949;-61
2021/01/11 02:56:03;;;;;;;;;;;;;;;;;;5013349;28;19926;-61
2021/01/11 02:58:30;;;;;;;;;;;;;;;;;;5013657;28;19983;-61
2021/01/11 03:00:57;;;;;;;;;;;;;;;;;;5013373;28;19925;-61
2021/01/11 03:03:24;;;;;;;;;;;;;;;;;;5008837;28;20185;-61
2021/01/11 03:05:51;;;;;;;;;;;;;;;;;;5005454;28;19926;-62
2021/01/11 03:08:18;;;;;;;;;;;;;;;;;;5009211;28;19925;-62
2021/01/11 03:10:45;;;;;;;;;;;;;;;;;;5008618;28;20262;-62
2021/01/11 03:13:13;;;;;;;;;;;;;;;;;;5020713;28;19936;-62
2021/01/11 03:15:40;;;;;;;;;;;;;;;;;;5009528;28;19936;-62
2021/01/11 03:18:07;;;;;;;;;;;;;;;;;;4998049;28;20231;-62
2021/01/11 03:20:34;;;;;;;;;;;;;;;;;;4992628;28;19930;-62
2021/01/11 03:23:01;;;;;;;;;;;;;;;;;;4991097;28;19926;-62
2021/01/11 03:25:28;;;;;;;;;;;;;;;;;;4998759;28;20349;-62
2021/01/11 03:27:56;;;;;;;;;;;;;;;;;;5003278;28;20275;-62
2021/01/11 03:30:23;;;;;;;;;;;;;;;;;;5011363;28;19925;-62
2021/01/11 03:32:50;;;;;;;;;;;;;;;;;;5012155;28;19999;-62
2021/01/11 03:35:17;;;;;;;;;;;;;;;;;;4997323;28;19929;-62
2021/01/11 03:37:44;;;;;;;;;;;;;;;;;;5001012;28;20315;-62
2021/01/11 03:40:11;;;;;;;;;;;;;;;;;;5013595;28;20301;-62
2021/01/11 03:42:38;;;;;;;;;;;;;;;;;;5010765;28;20306;-62
2021/01/11 03:45:05;;;;;;;;;;;;;;;;;;5011398;28;19926;-62
2021/01/11 03:47:32;;;;;;;;;;;;;;;;;;5010640;28;19932;-61
2021/01/11 03:50:00;;;;;;;;;;;;;;;;;;4993722;28;19930;-62
2021/01/11 03:52:27;;;;;;;;;;;;;;;;;;4998762;28;19929;-62
2021/01/11 03:54:54;;;;;;;;;;;;;;;;;;5014163;28;20016;-62
2021/01/11 03:57:21;;;;;;;;;;;;;;;;;;5013287;28;19930;-62
2021/01/11 03:59:48;;;;;;;;;;;;;;;;;;4994793;28;19932;-62
2021/01/11 04:02:15;;;;;;;;;;;;;;;;;;5011985;28;20305;-61
2021/01/11 04:04:43;;;;;;;;;;;;;;;;;;5013495;28;19949;-62
2021/01/11 04:07:10;;;;;;;;;;;;;;;;;;5007584;28;20031;-61
2021/01/11 04:09:37;;;;;;;;;;;;;;;;;;5011619;28;20020;-62
2021/01/11 04:12:04;;;;;;;;;;;;;;;;;;5010881;28;19929;-61
2021/01/11 04:14:32;;;;;;;;;;;;;;;;;;5027163;28;19938;-62
2021/01/11 04:16:59;;;;;;;;;;;;;;;;;;5000864;28;20025;-62
2021/01/11 04:19:26;;;;;;;;;;;;;;;;;;4993478;28;19977;-62
2021/01/11 04:21:53;;;;;;;;;;;;;;;;;;5004547;28;19942;-61
2021/01/11 04:24:20;;;;;;;;;;;;;;;;;;4995281;28;19940;-61
2021/01/11 04:26:47;;;;;;;;;;;;;;;;;;5007569;28;20304;-61
2021/01/11 04:29:14;;;;;;;;;;;;;;;;;;5009038;28;19940;-61
2021/01/11 04:31:41;;;;;;;;;;;;;;;;;;5010909;28;19929;-62
2021/01/11 04:34:08;;;;;;;;;;;;;;;;;;4993519;28;19926;-62
2021/01/11 04:36:35;;;;;;;;;;;;;;;;;;5007005;28;19926;-62
2021/01/11 04:39:02;;;;;;;;;;;;;;;;;;5009824;28;20464;-62
2021/01/11 04:41:30;;;;;;;;;;;;;;;;;;5013071;28;19932;-61
2021/01/11 04:43:57;;;;;;;;;;;;;;;;;;5003635;28;19957;-61
2021/01/11 04:46:25;;;;;;;;;;;;;;;;;;5007391;28;20401;-61
2021/01/11 04:48:52;;;;;;;;;;;;;;;;;;5003144;28;19925;-62
2021/01/11 04:51:19;;;;;;;;;;;;;;;;;;5001938;28;19949;-62
2021/01/11 04:53:46;;;;;;;;;;;;;;;;;;5007994;28;19931;-62
2021/01/11 04:56:13;;;;;;;;;;;;;;;;;;5009423;28;19930;-62
2021/01/11 04:58:40;;;;;;;;;;;;;;;;;;5004698;28;19926;-62
2021/01/11 05:01:09;;;;;;;;;;;;;;;;;;5007554;28;19937;-61
2021/01/11 05:03:36;;;;;;;;;;;;;;;;;;4995879;28;20339;-61
2021/01/11 05:06:03;;;;;;;;;;;;;;;;;;4994965;28;19929;-61
2021/01/11 05:08:30;;;;;;;;;;;;;;;;;;5001560;28;19936;-62
2021/01/11 05:10:58;;;;;;;;;;;;;;;;;;4996898;28;19965;-62
2021/01/11 05:13:25;;;;;;;;;;;;;;;;;;4995812;28;19940;-62
2021/01/11 05:15:52;;;;;;;;;;;;;;;;;;4989996;28;19936;-62
2021/01/11 05:18:19;;;;;;;;;;;;;;;;;;4996733;28;19930;-62
2021/01/11 05:20:47;;;;;;;;;;;;;;;;;;5006966;28;19937;-62
2021/01/11 05:23:14;;;;;;;;;;;;;;;;;;5001156;28;19936;-62
2021/01/11 05:28:45;;;;;;;;;;;;;;;;;;5004610;28;19925;-62
2021/01/11 05:31:12;;;;;;;;;;;;;;;;;;5008171;28;20428;-61
2021/01/11 05:33:40;;;;;;;;;;;;;;;;;;4989057;28;20032;-62
2021/01/11 05:36:07;;;;;;;;;;;;;;;;;;4992893;28;19933;-61
2021/01/11 05:38:42;;;;;;;;;;;;;;;;;;5007892;28;19933;-61
2021/01/11 05:41:09;;;;;;;;;;;;;;;;;;5000547;28;19930;-61
2021/01/11 05:43:36;;;;;;;;;;;;;;;;;;5002335;28;19929;-62
2021/01/11 05:46:04;;;;;;;;;;;;;;;;;;4991341;28;19945;-61
2021/01/11 05:48:31;;;;;;;;;;;;;;;;;;4992881;28;19939;-62
2021/01/11 05:50:58;;;;;;;;;;;;;;;;;;5004678;28;19929;-61
2021/01/11 05:53:25;;;;;;;;;;;;;;;;;;5005536;28;19933;-62
2021/01/11 05:55:52;;;;;;;;;;;;;;;;;;5010964;28;19992;-62
2021/01/11 05:58:19;;;;;;;;;;;;;;;;;;4999208;28;19936;-62
2021/01/11 06:00:47;;;;;;;;;;;;;;;;;;5003003;28;19930;-61
2021/01/11 06:03:14;;;;;;;;;;;;;;;;;;5006761;28;19929;-62
2021/01/11 06:05:41;;;;;;;;;;;;;;;;;;5007818;28;19951;-62
2021/01/11 06:08:08;;;;;;;;;;;;;;;;;;4999415;28;20132;-62
2021/01/11 06:10:35;;;;;;;;;;;;;;;;;;5007371;28;20409;-62
2021/01/11 06:13:02;;;;;;;;;;;;;;;;;;5015135;28;20288;-61
2021/01/11 06:15:29;;;;;;;;;;;;;;;;;;5027370;28;19928;-62
2021/01/11 06:17:56;;;;;;;;;;;;;;;;;;5004619;28;19952;-61
2021/01/11 06:20:24;;;;;;;;;;;;;;;;;;4998716;28;19929;-61
2021/01/11 06:22:51;;;;;;;;;;;;;;;;;;5005505;28;19926;-61
2021/01/11 06:25:18;;;;;;;;;;;;;;;;;;5003022;28;19929;-61
2021/01/11 06:27:45;;;;;;;;;;;;;;;;;;4997598;28;20060;-61
2021/01/11 06:30:13;;;;;;;;;;;;;;;;;;5013749;28;19929;-61
2021/01/11 06:32:40;;;;;;;;;;;;;;;;;;5001413;28;19926;-61
2021/01/11 06:35:07;;;;;;;;;;;;;;;;;;5002065;28;19952;-62
2021/01/11 06:37:34;;;;;;;;;;;;;;;;;;5003303;28;20420;-62
2021/01/11 06:40:02;;;;;;;;;;;;;;;;;;4999150;28;19936;-61
2021/01/11 06:42:29;;;;;;;;;;;;;;;;;;5004545;28;20011;-61
2021/01/11 06:44:56;;;;;;;;;;;;;;;;;;4999000;28;19930;-61
2021/01/11 06:47:23;;;;;;;;;;;;;;;;;;5009230;28;20012;-61
2021/01/11 06:49:51;;;;;;;;;;;;;;;;;;5002973;28;19930;-61
2021/01/11 06:52:18;;;;;;;;;;;;;;;;;;5006300;28;19930;-61
2021/01/11 06:54:45;;;;;;;;;;;;;;;;;;5007922;28;19940;-62
2021/01/11 06:57:13;;;;;;;;;;;;;;;;;;5005741;28;19952;-61
2021/01/11 06:59:40;;;;;;;;;;;;;;;;;;5002625;28;19930;-64
2021/01/11 07:02:07;;;;;;;;;;;;;;;;;;5004786;28;20296;-62
2021/01/11 07:04:34;;;;;;;;;;;;;;;;;;5009324;28;19936;-61
2021/01/11 07:07:02;;;;;;;;;;;;;;;;;;5005694;28;19929;-61
2021/01/11 07:09:29;;;;;;;;;;;;;;;;;;5007942;28;20361;-62
2021/01/11 07:11:57;;;;;;;;;;;;;;;;;;5007263;28;20335;-61
2021/01/11 07:14:24;;;;;;;;;;;;;;;;;;5010194;28;20028;-61
2021/01/11 07:16:52;;;;;;;;;;;;;;;;;;5008747;28;20296;-62
2021/01/11 07:19:19;;;;;;;;;;;;;;;;;;5008492;28;19934;-61
2021/01/11 07:21:46;;;;;;;;;;;;;;;;;;5010939;28;20043;-61
2021/01/11 07:24:14;;;;;;;;;;;;;;;;;;5007643;28;19944;-61
2021/01/11 07:26:41;;;;;;;;;;;;;;;;;;5004778;28;20027;-63
2021/01/11 07:29:08;;;;;;;;;;;;;;;;;;5008754;28;19929;-62
2021/01/11 07:31:39;;;;;;;;;;;;;;;;;;5005176;28;20372;-63
2021/01/11 07:34:06;;;;;;;;;;;;;;;;;;5011779;28;19929;-62
2021/01/11 07:36:34;;;;;;;;;;;;;;;;;;5008789;28;20046;-63
2021/01/11 07:39:01;;;;;;;;;;;;;;;;;;5009978;28;19960;-62
2021/01/11 07:41:30;;;;;;;;;;;;;;;;;;5008728;28;20355;-63
2021/01/11 07:43:58;;;;;;;;;;;;;;;;;;5008561;28;19933;-62
2021/01/11 07:46:26;;;;;;;;;;;;;;;;;;5008993;28;19940;-62
2021/01/11 07:48:54;;;;;;;;;;;;;;;;;;5007855;28;19971;-62
2021/01/11 07:51:22;;;;;;;;;;;;;;;;;;5003730;28;19930;-63
2021/01/11 07:53:49;;;;;;;;;;;;;;;;;;5006962;28;19958;-62
2021/01/11 07:56:19;;;;;;;;;;;;;;;;;;5006009;28;19929;-62
2021/01/11 07:58:47;;;;;;;;;;;;;;;;;;5008198;28;19930;-63
2021/01/11 08:01:16;;;;;;;;;;;;;;;;;;5006392;28;20415;-62
2021/01/11 08:03:43;;;;;;;;;;;;;;;;;;5007373;28;19975;-63
2021/01/11 08:06:11;;;;;;;;;;;;;;;;;;5006009;28;20031;-62
2021/01/11 08:08:38;;;;;;;;;;;;;;;;;;5003608;28;19931;-63
2021/01/11 08:11:10;;;;;;;;;;;;;;;;;;5001524;28;20353;-62
2021/01/11 08:13:39;;;;;;;;;;;;;;;;;;5005546;28;19929;-62
2021/01/11 08:16:10;;;;;;;;;;;;;;;;;;5003785;28;20352;-62
2021/01/11 08:18:38;;;;;;;;;;;;;;;;;;5006407;28;19929;-63
2021/01/11 08:21:06;;;;;;;;;;;;;;;;;;5003469;28;19933;-62
2021/01/11 08:23:33;;;;;;;;;;;;;;;;;;5007352;28;19929;-62
2021/01/11 08:26:01;;;;;;;;;;;;;;;;;;5006655;28;19968;-62
2021/01/11 08:28:29;;;;;;;;;;;;;;;;;;5005297;28;20016;-62
2021/01/11 08:30:57;;;;;;;;;;;;;;;;;;4996447;28;19930;-63
2021/01/11 08:33:25;;;;;;;;;;;;;;;;;;5004240;28;19961;-62
2021/01/11 08:35:53;;;;;;;;;;;;;;;;;;5006903;28;19937;-62
2021/01/11 08:38:20;;;;;;;;;;;;;;;;;;5007640;28;20226;-62
2021/01/11 08:40:51;;;;;;;;;;;;;;;;;;5008371;28;19926;-62
2021/01/11 08:43:29;;;;;;;;;;;;;;;;;;4995790;28;19940;-62
2021/01/11 08:46:03;;;;;;;;;;;;;;;;;;5008422;28;20294;-62
2021/01/11 08:48:31;;;;;;;;;;;;;;;;;;4999338;28;19952;-62
2021/01/11 08:50:59;;;;;;;;;;;;;;;;;;5006182;28;19981;-62
2021/01/11 08:53:26;;;;;;;;;;;;;;;;;;5008314;28;19930;-62
2021/01/11 08:55:56;;;;;;;;;;;;;;;;;;5012807;28;20292;-63
2021/01/11 08:58:25;;;;;;;;;;;;;;;;;;5005027;28;20534;-62
2021/01/11 09:00:54;;;;;;;;;;;;;;;;;;5006718;28;20060;-63
2021/01/11 09:03:24;;;;;;;;;;;;;;;;;;5007592;28;19936;-63
2021/01/11 09:05:56;;;;;;;;;;;;;;;;;;5008424;28;19929;-63
2021/01/11 09:08:25;;;;;;;;;;;;;;;;;;5002347;28;20271;-62
2021/01/11 09:11:01;;;;;;;;;;;;;;;;;;5005463;28;19941;-63
2021/01/11 09:13:45;;;;;;;;;;;;;;;;;;5005729;28;19936;-63
2021/01/11 09:16:25;;;;;;;;;;;;;;;;;;5007844;28;19935;-63
2021/01/11 09:22:03;;;;;;;;;;;;;;;;;;4999585;28;19982;-62
2021/01/11 09:24:31;;;;;;;;;;;;;;;;;;5000648;28;19933;-62
2021/01/11 09:26:58;;;;;;;;;;;;;;;;;;5008166;28;20325;-61
2021/01/11 09:29:26;;;;;;;;;;;;;;;;;;5002283;28;20285;-63
2021/01/11 09:31:54;;;;;;;;;;;;;;;;;;5001977;28;19931;-62
2021/01/11 09:34:22;;;;;;;;;;;;;;;;;;5008643;28;19934;-62
2021/01/11 09:36:50;;;;;;;;;;;;;;;;;;5008280;28;19937;-61
2021/01/11 09:39:18;;;;;;;;;;;;;;;;;;4995547;28;19961;-61
2021/01/11 09:41:47;;;;;;;;;;;;;;;;;;5006629;28;19933;-61
2021/01/11 09:44:21;;;;;;;;;;;;;;;;;;5006280;28;19976;-61
2021/01/11 09:46:59;;;;;;;;;;;;;;;;;;5011408;28;19929;-62
2021/01/11 09:49:40;;;;;;;;;;;;;;;;;;4991890;28;20340;-62
2021/01/11 09:52:10;;;;;;;;;;;;;;;;;;5005701;28;20464;-62
2021/01/11 09:54:37;;;;;;;;;;;;;;;;;;5004693;28;19940;-62
2021/01/11 09:57:05;;;;;;;;;;;;;;;;;;5005308;28;19936;-63
2021/01/11 09:59:33;;;;;;;;;;;;;;;;;;5002389;28;19934;-62
2021/01/11 10:02:01;;;;;;;;;;;;;;;;;;5006503;28;19944;-62
2021/01/11 10:04:28;;;;;;;;;;;;;;;;;;4998258;28;19937;-62
2021/01/11 10:06:56;;;;;;;;;;;;;;;;;;5002819;28;19953;-63
2021/01/11 10:09:24;;;;;;;;;;;;;;;;;;5004457;28;20365;-63
2021/01/11 10:11:57;;;;;;;;;;;;;;;;;;5000948;28;20028;-62
2021/01/11 10:14:42;;;;;;;;;;;;;;;;;;4999004;28;20009;-63
2021/01/11 10:17:33;;;;;;;;;;;;;;;;;;5001617;28;19925;-62
2021/01/11 10:20:08;;;;;;;;;;;;;;;;;;5005708;28;20278;-63
2021/01/11 10:22:38;;;;;;;;;;;;;;;;;;5004797;28;19929;-63
2021/01/11 10:25:07;;;;;;;;;;;;;;;;;;5005036;28;19988;-63
2021/01/11 10:27:38;;;;;;;;;;;;;;;;;;5001988;28;19936;-63
2021/01/11 10:30:20;;;;;;;;;;;;;;;;;;5003087;28;20048;-63
2021/01/11 10:33:16;;;;;;;;;;;;;;;;;;5001776;28;19930;-63
2021/01/11 10:36:12;;;;;;;;;;;;;;;;;;4990389;28;20084;-62
2021/01/11 10:38:55;;;;;;;;;;;;;;;;;;4997774;28;20008;-62
2021/01/11 10:41:23;;;;;;;;;;;;;;;;;;5005700;28;20397;-63
2021/01/11 10:43:51;;;;;;;;;;;;;;;;;;5001452;28;19944;-62
2021/01/11 10:46:19;;;;;;;;;;;;;;;;;;5003276;28;19932;-61
2021/01/11 10:48:47;;;;;;;;;;;;;;;;;;5006251;28;20400;-63
2021/01/11 10:51:28;;;;;;;;;;;;;;;;;;5006649;28;19930;-61
2021/01/11 10:54:13;;;;;;;;;;;;;;;;;;5005505;28;20027;-62
2021/01/11 10:56:45;;;;;;;;;;;;;;;;;;5001142;28;20401;-62
2021/01/11 10:59:27;;;;;;;;;;;;;;;;;;4999727;28;19937;-62
2021/01/11 11:05:23;;;;;;;;;;;;;;;;;;4993878;28;19937;-61
2021/01/11 11:08:36;;;;;;;;;;;;;;;;;;5002619;28;20214;-62
2021/01/11 11:11:06;;;;;;;;;;;;;;;;;;5007351;28;21944;-62
2021/01/11 11:13:34;;;;;;;;;;;;;;;;;;5008250;28;19936;-61
2021/01/11 11:16:02;;;;;;;;;;;;;;;;;;5006947;28;19934;-61
2021/01/11 11:18:29;;;;;;;;;;;;;;;;;;5006028;28;19930;-61
2021/01/11 11:20:57;;;;;;;;;;;;;;;;;;4998741;28;20048;-62
2021/01/11 11:23:25;;;;;;;;;;;;;;;;;;5005476;28;19925;-63
2021/01/11 11:25:55;;;;;;;;;;;;;;;;;;5008950;28;19975;-63
2021/01/11 11:28:24;;;;;;;;;;;;;;;;;;5005489;28;19929;-67
2021/01/11 11:30:53;;;;;;;;;;;;;;;;;;5003772;28;19957;-61
2021/01/11 11:33:20;;;;;;;;;;;;;;;;;;5005410;28;19929;-63
2021/01/11 11:35:48;;;;;;;;;;;;;;;;;;5008593;28;19926;-62
2021/01/11 11:38:17;;;;;;;;;;;;;;;;;;5008837;28;19926;-62
2021/01/11 11:40:49;;;;;;;;;;;;;;;;;;4997541;28;19932;-62
2021/01/11 11:43:19;;;;;;;;;;;;;;;;;;5002665;28;19926;-61
2021/01/11 11:45:46;;;;;;;;;;;;;;;;;;5008105;28;19933;-62
2021/01/11 11:48:15;;;;;;;;;;;;;;;;;;4997495;28;19934;-61
2021/01/11 11:50:43;;;;;;;;;;;;;;;;;;5008505;28;19930;-61
2021/01/11 11:53:10;;;;;;;;;;;;;;;;;;5012455;28;20368;-61
2021/01/11 11:55:38;;;;;;;;;;;;;;;;;;5010627;28;20024;-62
2021/01/11 11:58:10;;;;;;;;;;;;;;;;;;5011698;28;19930;-62
2021/01/11 12:00:38;;;;;;;;;;;;;;;;;;5010234;28;19930;-62
2021/01/11 12:03:15;;;;;;;;;;;;;;;;;;5005146;28;19934;-61
2021/01/11 12:05:43;;;;;;;;;;;;;;;;;;5010178;28;19975;-61
2021/01/11 12:08:11;;;;;;;;;;;;;;;;;;5008138;28;19976;-62
2021/01/11 12:10:40;;;;;;;;;;;;;;;;;;5004869;28;19929;-61
2021/01/11 12:13:10;;;;;;;;;;;;;;;;;;5006998;28;19929;-61
2021/01/11 12:15:39;;;;;;;;;;;;;;;;;;5008354;28;20583;-62
2021/01/11 12:18:07;;;;;;;;;;;;;;;;;;5005394;28;19965;-62
2021/01/11 12:20:34;;;;;;;;;;;;;;;;;;5007400;28;19977;-62
2021/01/11 12:23:01;;;;;;;;;;;;;;;;;;5009857;28;20052;-62
2021/01/11 12:25:30;;;;;;;;;;;;;;;;;;5008011;28;19989;-62
2021/01/11 12:27:58;;;;;;;;;;;;;;;;;;5011036;28;19938;-61
2021/01/11 12:30:25;;;;;;;;;;;;;;;;;;5009329;28;20263;-61
2021/01/11 12:32:53;;;;;;;;;;;;;;;;;;5011013;28;20414;-61
2021/01/11 12:35:20;;;;;;;;;;;;;;;;;;5009750;28;19929;-61
2021/01/11 12:37:48;;;;;;;;;;;;;;;;;;5005768;28;19933;-61
2021/01/11 12:40:16;;;;;;;;;;;;;;;;;;5006718;28;19940;-61
2021/01/11 12:42:43;;;;;;;;;;;;;;;;;;5011605;28;19936;-63
2021/01/11 12:45:11;;;;;;;;;;;;;;;;;;5012443;28;20468;-62
2021/01/11 12:47:40;;;;;;;;;;;;;;;;;;5014066;28;20312;-63
2021/01/11 12:50:07;;;;;;;;;;;;;;;;;;5001900;28;19933;-62
2021/01/11 12:52:35;;;;;;;;;;;;;;;;;;5009145;28;21147;-62
2021/01/11 12:55:02;;;;;;;;;;;;;;;;;;5001236;28;20135;-62
2021/01/11 12:57:29;;;;;;;;;;;;;;;;;;5012158;28;19925;-63
2021/01/11 12:59:57;;;;;;;;;;;;;;;;;;5006388;28;19933;-63
2021/01/11 13:02:24;;;;;;;;;;;;;;;;;;5008403;28;20011;-63
2021/01/11 13:04:52;;;;;;;;;;;;;;;;;;5008211;28;19932;-63
2021/01/11 13:07:20;;;;;;;;;;;;;;;;;;5009305;28;19926;-63
2021/01/11 13:09:48;;;;;;;;;;;;;;;;;;5011265;28;20397;-63
2021/01/11 13:12:17;;;;;;;;;;;;;;;;;;5012987;28;19925;-63
2021/01/11 13:14:45;;;;;;;;;;;;;;;;;;5020005;28;19930;-63
2021/01/11 13:17:12;;;;;;;;;;;;;;;;;;5009235;28;19960;-63
2021/01/11 13:19:40;;;;;;;;;;;;;;;;;;5011230;28;19937;-61
2021/01/11 13:22:08;;;;;;;;;;;;;;;;;;5006431;28;20019;-62
2021/01/11 13:24:35;;;;;;;;;;;;;;;;;;5005729;28;19932;-62
2021/01/11 13:27:03;;;;;;;;;;;;;;;;;;5009916;28;19926;-62
2021/01/11 13:29:33;;;;;;;;;;;;;;;;;;5010490;28;20012;-62
2021/01/11 13:32:00;;;;;;;;;;;;;;;;;;5009608;28;20332;-62
2021/01/11 13:34:28;;;;;;;;;;;;;;;;;;5009623;28;20321;-62
2021/01/11 13:36:55;;;;;;;;;;;;;;;;;;5003414;28;20365;-62
2021/01/11 13:39:22;;;;;;;;;;;;;;;;;;5007965;28;19953;-62
2021/01/11 13:41:51;;;;;;;;;;;;;;;;;;5010981;28;20010;-63
2021/01/11 13:44:30;;;;;;;;;;;;;;;;;;5014266;28;19934;-63
2021/01/11 13:47:12;;;;;;;;;;;;;;;;;;4992275;28;19933;-63
2021/01/11 13:49:39;;;;;;;;;;;;;;;;;;5009342;28;20134;-62
2021/01/11 13:52:07;;;;;;;;;;;;;;;;;;5004798;28;19967;-61
2021/01/11 13:54:35;;;;;;;;;;;;;;;;;;5010939;28;19926;-62
2021/01/11 13:57:04;;;;;;;;;;;;;;;;;;5014338;28;20005;-63
2021/01/11 13:59:34;;;;;;;;;;;;;;;;;;5009407;28;19937;-63
2021/01/11 14:02:04;;;;;;;;;;;;;;;;;;5010985;28;19956;-61
2021/01/11 14:04:32;;;;;;;;;;;;;;;;;;5009418;28;19933;-62
2021/01/11 14:07:00;;;;;;;;;;;;;;;;;;5010781;28;19925;-63
2021/01/11 14:09:29;;;;;;;;;;;;;;;;;;5015315;28;20361;-63
2021/01/11 14:12:00;;;;;;;;;;;;;;;;;;5008340;28;19930;-62
2021/01/11 14:14:31;;;;;;;;;;;;;;;;;;5009368;28;20047;-62
2021/01/11 14:16:59;;;;;;;;;;;;;;;;;;5003385;28;20340;-62
2021/01/11 14:19:27;;;;;;;;;;;;;;;;;;5009306;28;19933;-63
2021/01/11 14:21:55;;;;;;;;;;;;;;;;;;5006548;28;20184;-62
2021/01/11 14:24:24;;;;;;;;;;;;;;;;;;5010575;28;20040;-62
2021/01/11 14:26:53;;;;;;;;;;;;;;;;;;5006000;28;20165;-63
2021/01/11 14:29:22;;;;;;;;;;;;;;;;;;5007001;28;19929;-62
2021/01/11 14:31:58;;;;;;;;;;;;;;;;;;5008241;28;20461;-62
2021/01/11 14:34:42;;;;;;;;;;;;;;;;;;5008931;28;20041;-62
2021/01/11 14:37:10;;;;;;;;;;;;;;;;;;5010295;28;19929;-63
2021/01/11 14:39:40;;;;;;;;;;;;;;;;;;5007987;28;19991;-62
2021/01/11 14:42:08;;;;;;;;;;;;;;;;;;5010310;28;20020;-63
2021/01/11 14:44:37;;;;;;;;;;;;;;;;;;5010434;28;20245;-63
2021/01/11 14:47:05;;;;;;;;;;;;;;;;;;5006135;28;20361;-63
2021/01/11 14:49:33;;;;;;;;;;;;;;;;;;5007304;28;20292;-63
2021/01/11 14:52:03;;;;;;;;;;;;;;;;;;5007869;28;19929;-62
2021/01/11 14:54:31;;;;;;;;;;;;;;;;;;5005487;28;19979;-61
2021/01/11 14:57:00;;;;;;;;;;;;;;;;;;5005175;28;19930;-66
2021/01/11 14:59:28;;;;;;;;;;;;;;;;;;5012300;28;19933;-67
2021/01/11 15:01:55;;;;;;;;;;;;;;;;;;5009028;28;19925;-67
2021/01/11 15:04:23;;;;;;;;;;;;;;;;;;5006599;28;20421;-66
2021/01/11 15:06:50;;;;;;;;;;;;;;;;;;5007086;28;19925;-66
2021/01/11 15:09:18;;;;;;;;;;;;;;;;;;5007317;28;19929;-66
2021/01/11 15:11:45;;;;;;;;;;;;;;;;;;5007924;28;19930;-66
2021/01/11 15:14:13;;;;;;;;;;;;;;;;;;5007495;28;20373;-66
2021/01/11 15:16:40;;;;;;;;;;;;;;;;;;5006852;28;19952;-66
2021/01/11 15:19:08;;;;;;;;;;;;;;;;;;5002731;28;19925;-62
2021/01/11 15:21:36;;;;;;;;;;;;;;;;;;5004099;28;19936;-61
2021/01/11 15:24:03;;;;;;;;;;;;;;;;;;5002285;28;19933;-62
2021/01/11 15:26:32;;;;;;;;;;;;;;;;;;5006171;28;20332;-61
2021/01/11 15:29:01;;;;;;;;;;;;;;;;;;5012672;28;20277;-61
2021/01/11 15:31:29;;;;;;;;;;;;;;;;;;5012517;28;19937;-63
2021/01/11 15:33:57;;;;;;;;;;;;;;;;;;5012302;28;19937;-61
2021/01/11 15:36:25;;;;;;;;;;;;;;;;;;5003514;28;19925;-61
2021/01/11 15:38:52;;;;;;;;;;;;;;;;;;5011421;28;19932;-61
2021/01/11 15:41:21;;;;;;;;;;;;;;;;;;5012351;28;20289;-62
2021/01/11 15:43:49;;;;;;;;;;;;;;;;;;5005938;28;19930;-62
2021/01/11 15:46:16;;;;;;;;;;;;;;;;;;5017231;28;19929;-61
2021/01/11 15:48:44;;;;;;;;;;;;;;;;;;5014679;28;20174;-61
2021/01/11 15:51:11;;;;;;;;;;;;;;;;;;5008935;28;20288;-62
2021/01/11 15:53:42;;;;;;;;;;;;;;;;;;5010194;28;20048;-61
2021/01/11 15:56:09;;;;;;;;;;;;;;;;;;5009670;28;19932;-61
2021/01/11 15:58:37;;;;;;;;;;;;;;;;;;5008739;28;19934;-62
2021/01/11 16:01:04;;;;;;;;;;;;;;;;;;5008629;28;19980;-60
2021/01/11 16:03:43;;;;;;;;;;;;;;;;;;3435773;28;10020873;-61
2021/01/11 16:06:12;;;;;;;;;;;;;;;;;;2241195;28;10001980;-60
2021/01/11 16:08:44;;;;;;;;;;;;;;;;;;5007114;28;19936;-60
2021/01/11 16:11:15;;;;;;;;;;;;;;;;;;5007619;28;19933;-59
2021/01/11 16:13:43;;;;;;;;;;;;;;;;;;5020687;28;20395;-60
2021/01/11 16:16:10;;;;;;;;;;;;;;;;;;5007582;28;20336;-60
2021/01/11 16:18:38;;;;;;;;;;;;;;;;;;4999135;28;20428;-60
2021/01/11 16:21:05;;;;;;;;;;;;;;;;;;5008088;28;19949;-60
2021/01/11 16:23:36;;;;;;;;;;;;;;;;;;5008896;28;20332;-60
2021/01/11 16:26:03;;;;;;;;;;;;;;;;;;5006405;28;19980;-61
2021/01/11 16:28:31;;;;;;;;;;;;;;;;;;5009048;28;19930;-61
2021/01/11 16:30:58;;;;;;;;;;;;;;;;;;5012410;28;19929;-61
2021/01/11 16:33:26;;;;;;;;;;;;;;;;;;5007386;28;20365;-62
2021/01/11 16:35:53;;;;;;;;;;;;;;;;;;5008024;28;19925;-61
2021/01/11 16:38:21;;;;;;;;;;;;;;;;;;5008277;28;19956;-63
2021/01/11 16:40:51;;;;;;;;;;;;;;;;;;5007611;28;20451;-61
2021/01/11 16:43:19;;;;;;;;;;;;;;;;;;5000498;28;19937;-62
2021/01/11 16:45:46;;;;;;;;;;;;;;;;;;5004943;28;19983;-63
2021/01/11 16:48:13;;;;;;;;;;;;;;;;;;4997346;28;19940;-62
2021/01/11 16:50:40;;;;;;;;;;;;;;;;;;4995169;28;20219;-62
2021/01/11 16:53:08;;;;;;;;;;;;;;;;;;4996976;28;19933;-60
2021/01/11 16:55:37;;;;;;;;;;;;;;;;;;4995769;28;19933;-61
2021/01/11 16:58:08;;;;;;;;;;;;;;;;;;5010304;28;19929;-61
2021/01/11 17:00:35;;;;;;;;;;;;;;;;;;4994480;28;19956;-61
2021/01/11 17:03:03;;;;;;;;;;;;;;;;;;4995834;28;19934;-62
2021/01/11 17:05:30;;;;;;;;;;;;;;;;;;4995797;28;19926;-60
2021/01/11 17:07:58;;;;;;;;;;;;;;;;;;4995216;28;20340;-61